Time;durP1;ratioP1;P1;durP2;ratioP2;P2;SDS_P1;SDS_P2;PMS_P1;PMS_P2;Temp;Humidity;BMP_temperature;BMP_pressure;BME280_temperature;BME280_humidity;BME280_pressure;Samples;Min_cycle;Max_cycle;Signal;HPM_P1;HPM_P2
2022/01/31 00:01:07;;;;;;;9.85;2.45;;;;;;;;;;4996529;28;20041;-71
2022/01/31 00:03:34;;;;;;;13.65;3.03;;;;;;;;;;5002325;28;20754;-71
2022/01/31 00:06:03;;;;;;;17.38;3.85;;;;;;;;;;4977266;28;20050;-71
2022/01/31 00:08:28;;;;;;;11.70;2.78;;;;;;;;;;4994642;28;20046;-70
2022/01/31 00:10:53;;;;;;;13.68;3.33;;;;;;;;;;5002650;28;20637;-70
2022/01/31 00:13:36;;;;;;;8.52;2.80;;;;;;;;;;5002958;28;20146;-70
2022/01/31 00:16:03;;;;;;;7.75;2.45;;;;;;;;;;4999933;28;20116;-70
2022/01/31 00:18:29;;;;;;;18.05;3.42;;;;;;;;;;5004207;28;20063;-71
2022/01/31 00:20:54;;;;;;;12.27;2.78;;;;;;;;;;4986465;28;20500;-71
2022/01/31 00:23:20;;;;;;;14.43;2.72;;;;;;;;;;4996264;28;20088;-71
2022/01/31 00:25:45;;;;;;;13.85;3.13;;;;;;;;;;4987226;28;20048;-71
2022/01/31 00:28:10;;;;;;;14.55;3.47;;;;;;;;;;4990572;28;20688;-71
2022/01/31 00:30:36;;;;;;;10.10;2.75;;;;;;;;;;4980204;28;20720;-70
2022/01/31 00:33:01;;;;;;;14.07;3.13;;;;;;;;;;4983131;28;20034;-71
2022/01/31 00:35:27;;;;;;;16.52;2.67;;;;;;;;;;4982462;28;20042;-70
2022/01/31 00:37:53;;;;;;;6.43;2.08;;;;;;;;;;4987388;28;20042;-71
2022/01/31 00:40:19;;;;;;;9.98;2.95;;;;;;;;;;4991359;28;20030;-71
2022/01/31 00:42:44;;;;;;;11.68;2.80;;;;;;;;;;4986435;28;20125;-71
2022/01/31 00:47:41;;;;;;;7.57;2.70;;;;;;;;;;4984147;28;20034;-71
2022/01/31 00:50:09;;;;;;;16.15;3.10;;;;;;;;;;4981707;28;20037;-70
2022/01/31 00:52:36;;;;;;;18.95;3.08;;;;;;;;;;4983331;28;20092;-71
2022/01/31 00:55:04;;;;;;;16.52;3.30;;;;;;;;;;4984802;28;20014;-71
2022/01/31 00:57:29;;;;;;;17.80;2.97;;;;;;;;;;4969013;28;20034;-71
2022/01/31 00:59:55;;;;;;;10.88;2.53;;;;;;;;;;4974111;28;20042;-70
2022/01/31 01:02:22;;;;;;;12.75;2.83;;;;;;;;;;4971634;28;20034;-70
2022/01/31 01:04:48;;;;;;;8.52;3.28;;;;;;;;;;4983718;28;20042;-70
2022/01/31 01:07:14;;;;;;;13.65;2.83;;;;;;;;;;4982007;28;20065;-70
2022/01/31 01:09:46;;;;;;;12.77;2.88;;;;;;;;;;5003440;28;20038;-71
2022/01/31 01:12:14;;;;;;;15.55;2.65;;;;;;;;;;4986465;28;20088;-71
2022/01/31 01:14:40;;;;;;;13.18;3.53;;;;;;;;;;4985396;28;20026;-71
2022/01/31 01:17:05;;;;;;;13.02;3.00;;;;;;;;;;4983524;28;20046;-70
2022/01/31 01:19:31;;;;;;;9.90;2.90;;;;;;;;;;4979195;28;20487;-70
2022/01/31 01:21:56;;;;;;;17.92;3.88;;;;;;;;;;4986026;28;20496;-71
2022/01/31 01:24:21;;;;;;;13.13;4.13;;;;;;;;;;4984554;28;20424;-71
2022/01/31 01:26:48;;;;;;;14.07;3.30;;;;;;;;;;4986857;28;20126;-71
2022/01/31 01:29:13;;;;;;;15.20;4.03;;;;;;;;;;4983819;28;20039;-71
2022/01/31 01:31:39;;;;;;;17.88;3.97;;;;;;;;;;4980442;28;20057;-70
2022/01/31 01:34:04;;;;;;;13.30;4.78;;;;;;;;;;4982903;28;20491;-71
2022/01/31 01:36:31;;;;;;;13.10;4.18;;;;;;;;;;4981389;28;20062;-71
2022/01/31 01:38:57;;;;;;;14.07;3.67;;;;;;;;;;4986493;28;20089;-71
2022/01/31 01:41:22;;;;;;;11.10;3.55;;;;;;;;;;4996743;28;20038;-71
2022/01/31 01:43:48;;;;;;;13.15;4.18;;;;;;;;;;4986623;28;20035;-71
2022/01/31 01:46:13;;;;;;;16.65;3.47;;;;;;;;;;5001171;28;20026;-71
2022/01/31 01:48:38;;;;;;;19.40;4.53;;;;;;;;;;5001839;28;20499;-71
2022/01/31 01:51:04;;;;;;;11.73;3.78;;;;;;;;;;4977916;28;20123;-71
2022/01/31 01:53:30;;;;;;;12.77;4.38;;;;;;;;;;5003317;28;20121;-71
2022/01/31 01:55:56;;;;;;;14.32;4.45;;;;;;;;;;4988479;28;20125;-71
2022/01/31 01:58:23;;;;;;;20.70;5.70;;;;;;;;;;4985518;28;20030;-70
2022/01/31 02:00:50;;;;;;;21.67;4.75;;;;;;;;;;4987421;28;20034;-70
2022/01/31 02:03:16;;;;;;;24.38;6.72;;;;;;;;;;4983125;28;20034;-70
2022/01/31 02:05:42;;;;;;;25.85;7.15;;;;;;;;;;4985896;28;20034;-71
2022/01/31 02:08:08;;;;;;;23.35;5.38;;;;;;;;;;4988195;28;20056;-71
2022/01/31 02:10:34;;;;;;;24.30;6.68;;;;;;;;;;4988482;28;20125;-71
2022/01/31 02:13:05;;;;;;;17.20;5.03;;;;;;;;;;4989669;28;20081;-71
2022/01/31 02:15:30;;;;;;;16.67;5.75;;;;;;;;;;4989524;28;20050;-71
2022/01/31 02:17:55;;;;;;;23.70;7.15;;;;;;;;;;4987703;28;20058;-71
2022/01/31 02:20:21;;;;;;;19.15;5.85;;;;;;;;;;4990447;28;20147;-70
2022/01/31 02:22:47;;;;;;;19.25;5.45;;;;;;;;;;4984126;28;20408;-70
2022/01/31 02:25:13;;;;;;;19.52;6.30;;;;;;;;;;4984331;28;20133;-70
2022/01/31 02:27:39;;;;;;;16.13;5.95;;;;;;;;;;4985640;28;20052;-70
2022/01/31 02:30:10;;;;;;;21.40;6.40;;;;;;;;;;4986879;28;20065;-71
2022/01/31 02:32:37;;;;;;;13.35;5.35;;;;;;;;;;4976310;28;20046;-70
2022/01/31 02:35:04;;;;;;;23.17;6.97;;;;;;;;;;4984989;28;20465;-70
2022/01/31 02:37:30;;;;;;;18.42;5.65;;;;;;;;;;4983716;28;20101;-70
2022/01/31 02:39:56;;;;;;;20.58;7.28;;;;;;;;;;4986995;28;20038;-70
2022/01/31 02:42:22;;;;;;;17.67;5.88;;;;;;;;;;4984786;28;20759;-71
2022/01/31 02:44:48;;;;;;;19.20;6.70;;;;;;;;;;4985752;28;20041;-70
2022/01/31 02:47:20;;;;;;;19.90;6.78;;;;;;;;;;4999598;28;20034;-70
2022/01/31 02:50:06;;;;;;;17.80;4.93;;;;;;;;;;4986399;28;20038;-70
2022/01/31 02:52:34;;;;;;;10.18;4.97;;;;;;;;;;4983772;28;20113;-69
2022/01/31 02:54:59;;;;;;;8.77;4.25;;;;;;;;;;4998150;28;20179;-70
2022/01/31 02:57:25;;;;;;;10.95;4.05;;;;;;;;;;4989428;28;20798;-70
2022/01/31 02:59:50;;;;;;;9.80;4.53;;;;;;;;;;4983790;28;20047;-70
2022/01/31 03:02:16;;;;;;;13.57;4.82;;;;;;;;;;4985281;28;20586;-70
2022/01/31 03:04:42;;;;;;;10.52;4.60;;;;;;;;;;4986231;28;20050;-70
2022/01/31 03:07:07;;;;;;;12.57;5.03;;;;;;;;;;4987861;28;20432;-70
2022/01/31 03:09:32;;;;;;;11.98;4.60;;;;;;;;;;4987353;28;20073;-70
2022/01/31 03:11:58;;;;;;;14.52;5.20;;;;;;;;;;4987700;28;20030;-70
2022/01/31 03:14:24;;;;;;;16.33;4.88;;;;;;;;;;4986573;28;20034;-70
2022/01/31 03:16:50;;;;;;;10.85;3.72;;;;;;;;;;4997978;28;20508;-70
2022/01/31 03:19:17;;;;;;;12.75;4.80;;;;;;;;;;4983754;28;20034;-70
2022/01/31 03:21:42;;;;;;;15.40;5.18;;;;;;;;;;4988541;28;20041;-70
2022/01/31 03:24:09;;;;;;;13.40;4.22;;;;;;;;;;4987803;28;20038;-70
2022/01/31 03:26:35;;;;;;;15.35;4.28;;;;;;;;;;4986583;28;20062;-70
2022/01/31 03:29:01;;;;;;;14.70;4.50;;;;;;;;;;4984490;28;20084;-70
2022/01/31 03:31:26;;;;;;;10.27;3.40;;;;;;;;;;4986611;28;20034;-70
2022/01/31 03:33:53;;;;;;;7.60;3.00;;;;;;;;;;4989932;28;20076;-70
2022/01/31 03:36:18;;;;;;;8.68;2.53;;;;;;;;;;5001309;28;20042;-70
2022/01/31 03:38:44;;;;;;;6.22;2.10;;;;;;;;;;4987197;28;20045;-70
2022/01/31 03:41:16;;;;;;;5.38;1.75;;;;;;;;;;4989940;28;20038;-70
2022/01/31 03:43:41;;;;;;;10.23;1.80;;;;;;;;;;4988368;28;20038;-70
2022/01/31 03:46:07;;;;;;;6.60;1.90;;;;;;;;;;4989831;28;20038;-70
2022/01/31 03:48:34;;;;;;;6.72;2.13;;;;;;;;;;4986797;28;20054;-70
2022/01/31 03:51:02;;;;;;;9.20;1.42;;;;;;;;;;4999701;28;20080;-70
2022/01/31 03:53:28;;;;;;;2.55;0.98;;;;;;;;;;4985176;28;20046;-70
2022/01/31 03:55:53;;;;;;;2.88;1.00;;;;;;;;;;4984927;28;20046;-70
2022/01/31 03:58:18;;;;;;;7.13;1.92;;;;;;;;;;4985995;28;20112;-70
2022/01/31 04:00:44;;;;;;;7.95;2.10;;;;;;;;;;4982976;28;20136;-70
2022/01/31 04:03:09;;;;;;;7.68;2.58;;;;;;;;;;4986131;28;20518;-70
2022/01/31 04:05:37;;;;;;;5.45;1.80;;;;;;;;;;4999424;28;20569;-70
2022/01/31 04:08:03;;;;;;;6.55;2.30;;;;;;;;;;4987380;28;20562;-70
2022/01/31 04:10:28;;;;;;;8.15;2.50;;;;;;;;;;4987413;28;20657;-70
2022/01/31 04:12:53;;;;;;;13.48;1.88;;;;;;;;;;4987946;28;20052;-70
2022/01/31 04:15:19;;;;;;;6.13;1.70;;;;;;;;;;4981797;28;20035;-70
2022/01/31 04:17:45;;;;;;;7.40;1.70;;;;;;;;;;5002888;28;20106;-70
2022/01/31 04:20:11;;;;;;;6.78;1.30;;;;;;;;;;5005308;28;20038;-70
2022/01/31 04:22:45;;;;;;;5.25;1.52;;;;;;;;;;5003027;28;20037;-69
2022/01/31 04:25:27;;;;;;;8.55;1.63;;;;;;;;;;5005795;28;20484;-70
2022/01/31 04:28:01;;;;;;;8.27;1.23;;;;;;;;;;5004024;28;20057;-70
2022/01/31 04:30:26;;;;;;;9.32;1.73;;;;;;;;;;5003129;28;20041;-70
2022/01/31 04:32:51;;;;;;;5.88;1.45;;;;;;;;;;5004855;28;20055;-70
2022/01/31 04:35:17;;;;;;;6.53;1.60;;;;;;;;;;5006788;28;20042;-70
2022/01/31 04:37:42;;;;;;;9.80;1.70;;;;;;;;;;5004738;28;20076;-70
2022/01/31 04:40:13;;;;;;;8.90;1.48;;;;;;;;;;5004210;28;20407;-70
2022/01/31 04:42:38;;;;;;;7.07;1.55;;;;;;;;;;4988293;28;20402;-70
2022/01/31 04:45:04;;;;;;;5.72;1.88;;;;;;;;;;5003474;28;20594;-70
2022/01/31 04:47:29;;;;;;;5.03;1.00;;;;;;;;;;5003919;28;20034;-70
2022/01/31 04:49:55;;;;;;;5.20;1.67;;;;;;;;;;5001922;28;20133;-70
2022/01/31 04:52:20;;;;;;;3.28;1.20;;;;;;;;;;5005561;28;20026;-70
2022/01/31 04:54:45;;;;;;;10.00;1.60;;;;;;;;;;5002717;28;20018;-70
2022/01/31 04:57:11;;;;;;;5.72;1.08;;;;;;;;;;5005678;28;20037;-70
2022/01/31 04:59:41;;;;;;;7.10;1.45;;;;;;;;;;5007221;28;20064;-70
2022/01/31 05:02:06;;;;;;;7.47;1.58;;;;;;;;;;4999633;28;20045;-70
2022/01/31 05:04:32;;;;;;;7.10;1.08;;;;;;;;;;4986355;28;20126;-70
2022/01/31 05:06:57;;;;;;;5.60;2.05;;;;;;;;;;4986659;28;20034;-70
2022/01/31 05:09:23;;;;;;;4.13;1.45;;;;;;;;;;4983001;28;20052;-70
2022/01/31 05:11:48;;;;;;;2.80;1.40;;;;;;;;;;4983832;28;20050;-70
2022/01/31 05:14:16;;;;;;;6.55;1.70;;;;;;;;;;4984173;28;20034;-70
2022/01/31 05:16:41;;;;;;;7.82;1.77;;;;;;;;;;4982051;28;20055;-70
2022/01/31 05:19:07;;;;;;;8.65;2.08;;;;;;;;;;4986898;28;20045;-70
2022/01/31 05:21:32;;;;;;;9.70;2.05;;;;;;;;;;4988028;28;20039;-70
2022/01/31 05:23:58;;;;;;;5.88;1.73;;;;;;;;;;4986955;28;20531;-70
2022/01/31 05:26:23;;;;;;;6.03;1.50;;;;;;;;;;5001498;28;20415;-70
2022/01/31 05:28:48;;;;;;;8.15;1.40;;;;;;;;;;4989757;28;20472;-70
2022/01/31 05:31:14;;;;;;;6.50;1.77;;;;;;;;;;4987072;28;20104;-70
2022/01/31 05:33:39;;;;;;;2.78;0.98;;;;;;;;;;4989693;28;20026;-70
2022/01/31 05:36:05;;;;;;;6.43;1.13;;;;;;;;;;4984548;28;20043;-70
2022/01/31 05:38:35;;;;;;;4.60;1.20;;;;;;;;;;4986748;28;20046;-70
2022/01/31 05:41:04;;;;;;;12.20;1.88;;;;;;;;;;4991840;28;20042;-70
2022/01/31 05:43:30;;;;;;;6.65;0.95;;;;;;;;;;4990935;28;20054;-70
2022/01/31 05:45:55;;;;;;;5.65;1.40;;;;;;;;;;4991523;28;20057;-70
2022/01/31 05:48:20;;;;;;;7.07;1.33;;;;;;;;;;4987314;28;20034;-70
2022/01/31 05:50:46;;;;;;;2.83;0.82;;;;;;;;;;4988059;28;20064;-70
2022/01/31 05:53:12;;;;;;;4.70;1.02;;;;;;;;;;4986333;28;20054;-70
2022/01/31 05:55:37;;;;;;;8.73;1.48;;;;;;;;;;4991078;28;20045;-70
2022/01/31 05:58:02;;;;;;;11.93;2.05;;;;;;;;;;4990960;28;20022;-70
2022/01/31 06:00:28;;;;;;;3.72;1.25;;;;;;;;;;4998409;28;20046;-70
2022/01/31 06:03:00;;;;;;;6.30;1.63;;;;;;;;;;4989890;28;20049;-70
2022/01/31 06:05:26;;;;;;;4.25;1.45;;;;;;;;;;4974431;28;20035;-70
2022/01/31 06:07:52;;;;;;;8.18;1.38;;;;;;;;;;4987693;28;20097;-70
2022/01/31 06:10:17;;;;;;;7.05;1.15;;;;;;;;;;4986442;28;20066;-70
2022/01/31 06:12:43;;;;;;;7.72;1.50;;;;;;;;;;4989434;28;20040;-70
2022/01/31 06:15:08;;;;;;;4.40;1.35;;;;;;;;;;4987140;28;20069;-70
2022/01/31 06:17:34;;;;;;;13.93;1.83;;;;;;;;;;4987695;28;20464;-70
2022/01/31 06:20:00;;;;;;;5.75;1.45;;;;;;;;;;4990830;28;20061;-70
2022/01/31 06:22:25;;;;;;;10.13;1.27;;;;;;;;;;4989442;28;20030;-70
2022/01/31 06:24:51;;;;;;;8.50;1.70;;;;;;;;;;4989830;28;20149;-70
2022/01/31 06:27:16;;;;;;;3.58;1.10;;;;;;;;;;4985858;28;20089;-70
2022/01/31 06:29:42;;;;;;;7.43;2.00;;;;;;;;;;4976848;28;20109;-70
2022/01/31 06:32:08;;;;;;;6.50;1.30;;;;;;;;;;5003335;28;20711;-70
2022/01/31 06:34:33;;;;;;;6.22;1.65;;;;;;;;;;5010255;28;20474;-70
2022/01/31 06:37:02;;;;;;;5.07;1.52;;;;;;;;;;5017828;28;20029;-70
2022/01/31 06:39:28;;;;;;;4.95;1.25;;;;;;;;;;5004471;28;20061;-70
2022/01/31 06:41:54;;;;;;;6.70;1.75;;;;;;;;;;5005266;28;20068;-70
2022/01/31 06:44:19;;;;;;;7.03;1.20;;;;;;;;;;5007244;28;20038;-70
2022/01/31 06:46:45;;;;;;;7.78;1.95;;;;;;;;;;5004903;28;20037;-70
2022/01/31 06:49:10;;;;;;;6.93;1.92;;;;;;;;;;5006298;28;20537;-70
2022/01/31 06:51:35;;;;;;;3.20;1.20;;;;;;;;;;5005563;28;20021;-70
2022/01/31 06:54:01;;;;;;;7.88;1.55;;;;;;;;;;4988803;28;20691;-70
2022/01/31 06:56:33;;;;;;;8.35;1.33;;;;;;;;;;4985822;28;20054;-70
2022/01/31 06:58:58;;;;;;;5.63;1.55;;;;;;;;;;4986333;28;20420;-70
2022/01/31 07:01:25;;;;;;;13.30;2.17;;;;;;;;;;4988778;28;20030;-70
2022/01/31 07:03:53;;;;;;;8.05;1.80;;;;;;;;;;4990478;28;20018;-70
2022/01/31 07:06:19;;;;;;;9.23;1.73;;;;;;;;;;5005182;28;20146;-70
2022/01/31 07:08:45;;;;;;;6.05;1.85;;;;;;;;;;4988131;28;20046;-70
2022/01/31 07:11:15;;;;;;;14.23;2.60;;;;;;;;;;4983449;28;20054;-70
2022/01/31 07:13:42;;;;;;;9.23;2.00;;;;;;;;;;4986636;28;20046;-70
2022/01/31 07:16:08;;;;;;;7.50;1.70;;;;;;;;;;4987658;28;20030;-69
2022/01/31 07:18:35;;;;;;;10.15;1.92;;;;;;;;;;4989671;28;20057;-70
2022/01/31 07:21:01;;;;;;;5.30;1.08;;;;;;;;;;4986277;28;20038;-70
2022/01/31 07:23:38;;;;;;;3.40;1.40;;;;;;;;;;4966638;28;20386;-70
2022/01/31 07:26:03;;;;;;;11.30;2.38;;;;;;;;;;4985804;28;20042;-70
2022/01/31 07:28:30;;;;;;;4.00;1.27;;;;;;;;;;4982097;28;20050;-70
2022/01/31 07:30:57;;;;;;;3.47;1.35;;;;;;;;;;4998457;28;20049;-70
2022/01/31 07:33:23;;;;;;;6.40;1.90;;;;;;;;;;4989606;28;20305;-71
2022/01/31 07:35:49;;;;;;;4.70;1.45;;;;;;;;;;4981437;28;20034;-70
2022/01/31 07:38:16;;;;;;;16.20;1.50;;;;;;;;;;4980452;28;20124;-70
2022/01/31 07:40:42;;;;;;;5.72;1.13;;;;;;;;;;4977348;28;20046;-70
2022/01/31 07:43:08;;;;;;;9.23;1.95;;;;;;;;;;4989928;28;20025;-69
2022/01/31 07:45:33;;;;;;;5.32;1.27;;;;;;;;;;4982711;28;20030;-71
2022/01/31 07:47:59;;;;;;;8.85;1.70;;;;;;;;;;4984260;28;21788;-71
2022/01/31 07:50:24;;;;;;;8.15;1.48;;;;;;;;;;4982779;28;20046;-70
2022/01/31 07:52:50;;;;;;;10.27;1.75;;;;;;;;;;4983261;28;20436;-70
2022/01/31 07:55:15;;;;;;;6.28;1.40;;;;;;;;;;4977684;28;20070;-71
2022/01/31 07:57:42;;;;;;;6.97;1.33;;;;;;;;;;4983578;28;20089;-70
2022/01/31 08:00:09;;;;;;;7.05;1.38;;;;;;;;;;4978037;28;20034;-70
2022/01/31 08:02:34;;;;;;;9.52;1.95;;;;;;;;;;4990639;28;20511;-72
2022/01/31 08:05:00;;;;;;;10.38;1.52;;;;;;;;;;4982780;28;20081;-71
2022/01/31 08:07:25;;;;;;;4.32;1.35;;;;;;;;;;4977309;28;20040;-71
2022/01/31 08:09:50;;;;;;;15.32;1.83;;;;;;;;;;4981674;28;20034;-71
2022/01/31 08:12:16;;;;;;;14.63;2.20;;;;;;;;;;4981205;28;20046;-70
2022/01/31 08:14:43;;;;;;;4.45;1.23;;;;;;;;;;4987509;28;20058;-71
2022/01/31 08:17:08;;;;;;;8.88;1.80;;;;;;;;;;4986039;28;20121;-72
2022/01/31 08:19:33;;;;;;;13.77;1.02;;;;;;;;;;4986805;28;20129;-71
2022/01/31 08:21:59;;;;;;;7.10;1.70;;;;;;;;;;4988403;28;20089;-72
2022/01/31 08:24:25;;;;;;;9.00;2.25;;;;;;;;;;4986373;28;20045;-71
2022/01/31 08:26:50;;;;;;;9.07;2.13;;;;;;;;;;4981026;28;20023;-70
2022/01/31 08:29:21;;;;;;;9.70;1.83;;;;;;;;;;4991737;28;20030;-71
2022/01/31 08:31:52;;;;;;;9.55;1.20;;;;;;;;;;4980714;28;20084;-71
2022/01/31 08:34:23;;;;;;;11.40;2.10;;;;;;;;;;4984861;28;20089;-72
2022/01/31 08:36:48;;;;;;;10.73;1.95;;;;;;;;;;4987241;28;20104;-72
2022/01/31 08:39:17;;;;;;;15.25;3.45;;;;;;;;;;4987446;28;20520;-72
2022/01/31 08:41:52;;;;;;;10.75;1.95;;;;;;;;;;4988437;28;20043;-72
2022/01/31 08:44:20;;;;;;;9.40;1.75;;;;;;;;;;4981305;28;20061;-71
2022/01/31 08:46:47;;;;;;;4.18;1.25;;;;;;;;;;4984490;28;20034;-71
2022/01/31 08:49:15;;;;;;;10.60;2.08;;;;;;;;;;4987153;28;20022;-71
2022/01/31 08:51:41;;;;;;;9.70;2.30;;;;;;;;;;4985841;28;20065;-70
2022/01/31 08:54:09;;;;;;;9.75;1.63;;;;;;;;;;4982871;28;20041;-70
2022/01/31 08:56:40;;;;;;;6.10;1.90;;;;;;;;;;4982050;28;20049;-71
2022/01/31 08:59:12;;;;;;;6.97;1.23;;;;;;;;;;4983338;28;20504;-71
2022/01/31 09:01:37;;;;;;;11.38;1.90;;;;;;;;;;4986235;28;20390;-72
2022/01/31 09:04:04;;;;;;;10.73;2.30;;;;;;;;;;4983159;28;20654;-73
2022/01/31 09:06:32;;;;;;;13.25;3.08;;;;;;;;;;4984768;28;20034;-69
2022/01/31 09:08:59;;;;;;;4.07;0.93;;;;;;;;;;4987689;28;20409;-70
2022/01/31 09:11:26;;;;;;;6.63;1.60;;;;;;;;;;4989747;28;20124;-69
2022/01/31 09:13:52;;;;;;;9.02;1.92;;;;;;;;;;5002471;28;20048;-70
2022/01/31 09:16:17;;;;;;;12.43;1.70;;;;;;;;;;4982487;28;20038;-72
2022/01/31 09:18:43;;;;;;;6.95;1.60;;;;;;;;;;4982176;28;20026;-71
2022/01/31 09:21:09;;;;;;;11.77;2.08;;;;;;;;;;4982903;28;20046;-67
2022/01/31 09:23:35;;;;;;;11.38;2.60;;;;;;;;;;4981996;28;20038;-69
2022/01/31 09:26:00;;;;;;;8.35;1.55;;;;;;;;;;4983648;28;20042;-68
2022/01/31 09:28:27;;;;;;;10.57;2.05;;;;;;;;;;4983122;28;20023;-68
2022/01/31 09:30:54;;;;;;;12.32;1.95;;;;;;;;;;4979709;28;20030;-69
2022/01/31 09:33:20;;;;;;;13.05;2.03;;;;;;;;;;4988000;28;20045;-70
2022/01/31 09:35:45;;;;;;;11.57;2.67;;;;;;;;;;4984165;28;20096;-70
2022/01/31 09:38:13;;;;;;;12.95;1.60;;;;;;;;;;4982225;28;20038;-69
2022/01/31 09:40:40;;;;;;;7.05;2.13;;;;;;;;;;4988773;28;20042;-72
2022/01/31 09:48:35;;;;;;;13.82;2.28;;;;;;;;;;4982196;28;20058;-72
2022/01/31 09:51:23;;;;;;;10.70;1.73;;;;;;;;;;4976797;28;20049;-71
2022/01/31 09:54:02;;;;;;;11.30;2.17;;;;;;;;;;4982572;28;20057;-73
2022/01/31 09:56:33;;;;;;;7.90;1.27;;;;;;;;;;4981840;28;20035;-72
2022/01/31 09:59:00;;;;;;;12.25;1.88;;;;;;;;;;4983298;28;20046;-74
2022/01/31 10:01:35;;;;;;;7.63;1.52;;;;;;;;;;4982580;28;20124;-74
2022/01/31 10:04:09;;;;;;;10.00;1.80;;;;;;;;;;4986741;28;20041;-72
2022/01/31 10:06:39;;;;;;;11.70;2.55;;;;;;;;;;4983408;28;20054;-74
2022/01/31 10:09:32;;;;;;;13.38;2.40;;;;;;;;;;4986621;28;20737;-74
2022/01/31 10:12:18;;;;;;;5.97;1.95;;;;;;;;;;4980383;28;20030;-72
2022/01/31 10:17:35;;;;;;;5.60;1.70;;;;;;;;;;4982906;28;20037;-71
2022/01/31 10:20:04;;;;;;;12.00;2.47;;;;;;;;;;4980325;28;20420;-72
2022/01/31 10:22:32;;;;;;;4.38;1.48;;;;;;;;;;4982455;28;20042;-74
2022/01/31 10:25:00;;;;;;;6.97;1.70;;;;;;;;;;4981117;28;20157;-75
2022/01/31 10:27:29;;;;;;;8.73;1.95;;;;;;;;;;4979958;28;20045;-76
2022/01/31 10:30:04;;;;;;;12.45;2.33;;;;;;;;;;4988618;28;20060;-71
2022/01/31 10:32:35;;;;;;;16.75;2.08;;;;;;;;;;4971697;28;20073;-74
2022/01/31 10:35:12;;;;;;;12.23;1.95;;;;;;;;;;4988365;28;20034;-74
2022/01/31 10:37:40;;;;;;;28.10;2.97;;;;;;;;;;4983002;28;20026;-75
2022/01/31 10:54:05;;;;;;;12.20;2.55;;;;;;;;;;4983434;28;20046;-71
2022/01/31 10:56:37;;;;;;;10.00;1.73;;;;;;;;;;4982513;28;20089;-72
2022/01/31 10:59:08;;;;;;;6.93;1.45;;;;;;;;;;4983686;28;20133;-71
2022/01/31 11:01:34;;;;;;;10.00;1.92;;;;;;;;;;4982949;28;20050;-71
2022/01/31 11:04:05;;;;;;;5.10;1.65;;;;;;;;;;4982834;28;20065;-69
2022/01/31 11:06:32;;;;;;;11.25;2.20;;;;;;;;;;4983026;28;20050;-73
2022/01/31 11:09:03;;;;;;;5.57;1.23;;;;;;;;;;4984639;28;20061;-72
2022/01/31 11:11:31;;;;;;;12.23;1.80;;;;;;;;;;4982992;28;20045;-70
2022/01/31 11:13:56;;;;;;;6.65;1.98;;;;;;;;;;4982067;28;20030;-70
2022/01/31 11:16:24;;;;;;;5.82;2.25;;;;;;;;;;4981966;28;20034;-71
2022/01/31 11:18:50;;;;;;;7.70;1.65;;;;;;;;;;4985054;28;20030;-70
2022/01/31 11:21:18;;;;;;;8.13;2.08;;;;;;;;;;4982769;28;20518;-71
2022/01/31 11:23:49;;;;;;;9.57;1.58;;;;;;;;;;4982476;28;20446;-71
2022/01/31 11:26:18;;;;;;;9.32;2.05;;;;;;;;;;4982096;28;20114;-72
2022/01/31 11:28:47;;;;;;;11.93;1.92;;;;;;;;;;4976795;28;20046;-74
2022/01/31 11:31:16;;;;;;;10.60;2.53;;;;;;;;;;4985861;28;20030;-74
2022/01/31 11:33:42;;;;;;;11.02;2.65;;;;;;;;;;4981148;28;20030;-75
2022/01/31 11:36:07;;;;;;;8.38;1.83;;;;;;;;;;4987993;28;20530;-75
2022/01/31 11:38:33;;;;;;;11.13;2.00;;;;;;;;;;4994794;28;20049;-73
2022/01/31 11:41:03;;;;;;;7.95;1.42;;;;;;;;;;4981334;28;20061;-70
2022/01/31 11:43:30;;;;;;;5.75;1.77;;;;;;;;;;4975514;28;20062;-70
2022/01/31 11:45:59;;;;;;;9.27;2.00;;;;;;;;;;4980530;28;20164;-70
2022/01/31 11:48:26;;;;;;;4.05;1.45;;;;;;;;;;4975939;28;20049;-70
2022/01/31 11:50:55;;;;;;;5.50;1.15;;;;;;;;;;4977934;28;20062;-70
2022/01/31 11:53:31;;;;;;;7.45;1.55;;;;;;;;;;4972502;28;20057;-70
2022/01/31 11:56:15;;;;;;;5.50;1.88;;;;;;;;;;4980103;28;20042;-70
2022/01/31 11:58:45;;;;;;;8.30;1.48;;;;;;;;;;4980021;28;20038;-70
2022/01/31 12:01:13;;;;;;;9.95;2.10;;;;;;;;;;4991174;28;20038;-69
2022/01/31 12:03:52;;;;;;;9.50;2.40;;;;;;;;;;4979969;28;20442;-69
2022/01/31 12:06:23;;;;;;;7.72;1.42;;;;;;;;;;4980735;28;20065;-68
2022/01/31 12:08:50;;;;;;;4.32;1.40;;;;;;;;;;4982650;28;20050;-70
2022/01/31 12:11:22;;;;;;;7.30;1.98;;;;;;;;;;4980764;28;20506;-70
2022/01/31 12:13:52;;;;;;;5.95;1.73;;;;;;;;;;4982669;28;20092;-70
2022/01/31 12:16:38;;;;;;;6.95;1.65;;;;;;;;;;4975029;28;20495;-68
2022/01/31 12:19:30;;;;;;;5.03;1.40;;;;;;;;;;4992863;28;20145;-69
2022/01/31 12:22:03;;;;;;;10.00;2.13;;;;;;;;;;4975847;28;20073;-71
2022/01/31 12:24:34;;;;;;;8.23;2.20;;;;;;;;;;4981187;28;20121;-71
2022/01/31 12:26:59;;;;;;;9.32;1.75;;;;;;;;;;4984155;28;20058;-70
2022/01/31 12:29:29;;;;;;;3.60;1.05;;;;;;;;;;4996932;28;20076;-70
2022/01/31 12:31:56;;;;;;;4.13;1.70;;;;;;;;;;4982426;28;20066;-69
2022/01/31 12:34:21;;;;;;;7.60;1.50;;;;;;;;;;4988906;28;20101;-70
2022/01/31 12:36:50;;;;;;;14.38;1.90;;;;;;;;;;4982558;28;20463;-71
2022/01/31 12:39:31;;;;;;;12.63;1.95;;;;;;;;;;4984230;28;20050;-75
2022/01/31 12:42:25;;;;;;;8.15;1.58;;;;;;;;;;4981302;28;20042;-73
2022/01/31 12:44:46;;;;;;;9.57;2.00;;;;;;;;;;4984120;28;20088;-74
2022/01/31 12:47:19;;;;;;;8.13;1.60;;;;;;;;;;4980919;28;20034;-73
2022/01/31 12:50:05;;;;;;;5.82;0.95;;;;;;;;;;4997590;28;20045;-73
2022/01/31 12:52:34;;;;;;;6.00;1.85;;;;;;;;;;4984524;28;20087;-74
2022/01/31 12:55:09;;;;;;;8.02;1.67;;;;;;;;;;4999224;28;20424;-75
2022/01/31 12:57:45;;;;;;;9.10;2.75;;;;;;;;;;4990977;28;20527;-74
2022/01/31 13:00:11;;;;;;;11.93;2.15;;;;;;;;;;4986392;28;20117;-76
2022/01/31 13:02:47;;;;;;;4.90;1.00;;;;;;;;;;4976371;28;20618;-75
2022/01/31 13:05:12;;;;;;;6.72;2.00;;;;;;;;;;4955191;28;20042;-73
2022/01/31 13:07:37;;;;;;;4.13;1.05;;;;;;;;;;4964182;28;20053;-72
2022/01/31 13:10:10;;;;;;;9.70;1.55;;;;;;;;;;4981960;28;20037;-72
2022/01/31 13:12:36;;;;;;;3.47;1.00;;;;;;;;;;4999526;28;20148;-73
2022/01/31 13:15:03;;;;;;;8.90;2.35;;;;;;;;;;5004708;28;20034;-72
2022/01/31 13:17:29;;;;;;;6.78;1.67;;;;;;;;;;4979277;28;20460;-73
2022/01/31 13:20:00;;;;;;;9.45;1.65;;;;;;;;;;4985304;28;20524;-74
2022/01/31 13:22:39;;;;;;;6.82;1.45;;;;;;;;;;4983667;28;20030;-73
2022/01/31 13:25:08;;;;;;;4.60;1.63;;;;;;;;;;4969559;28;20070;-72
2022/01/31 13:27:37;;;;;;;12.60;2.22;;;;;;;;;;4979951;28;20038;-72
2022/01/31 13:30:11;;;;;;;7.03;1.38;;;;;;;;;;4978867;28;20042;-72
2022/01/31 13:32:38;;;;;;;4.82;1.40;;;;;;;;;;4979370;28;20049;-71
2022/01/31 13:35:14;;;;;;;8.75;1.67;;;;;;;;;;4979911;28;20035;-72
2022/01/31 13:37:55;;;;;;;6.22;1.85;;;;;;;;;;4975396;28;20432;-69
2022/01/31 13:40:24;;;;;;;11.90;1.60;;;;;;;;;;4982226;28;20030;-71
2022/01/31 13:43:05;;;;;;;8.85;1.98;;;;;;;;;;4982892;28;20196;-76
2022/01/31 13:45:55;;;;;;;8.27;1.10;;;;;;;;;;4984600;28;20054;-72
2022/01/31 13:48:37;;;;;;;7.55;1.88;;;;;;;;;;4979852;28;20688;-70
2022/01/31 13:51:10;;;;;;;9.25;1.60;;;;;;;;;;4984540;28;20069;-73
2022/01/31 13:53:38;;;;;;;15.27;2.22;;;;;;;;;;4985290;28;20046;-71
2022/01/31 13:56:07;;;;;;;10.38;1.52;;;;;;;;;;4987315;28;20535;-72
2022/01/31 13:58:35;;;;;;;9.57;1.95;;;;;;;;;;4987104;28;20030;-73
2022/01/31 14:01:01;;;;;;;7.82;1.55;;;;;;;;;;4982414;28;20046;-71
2022/01/31 14:03:28;;;;;;;9.05;1.60;;;;;;;;;;4982974;28;20950;-71
2022/01/31 14:05:55;;;;;;;10.23;1.73;;;;;;;;;;4980721;28;20291;-71
2022/01/31 14:08:54;;;;;;;8.48;2.22;;;;;;;;;;4983941;28;20045;-71
2022/01/31 14:11:23;;;;;;;14.63;1.60;;;;;;;;;;4988623;28;20034;-72
2022/01/31 14:13:50;;;;;;;10.43;1.80;;;;;;;;;;4989297;28;20068;-71
2022/01/31 14:16:24;;;;;;;8.52;2.20;;;;;;;;;;5008465;28;20076;-72
2022/01/31 14:18:52;;;;;;;10.75;1.77;;;;;;;;;;5006604;28;20038;-71
2022/01/31 14:21:19;;;;;;;7.97;1.35;;;;;;;;;;5003323;28;20042;-70
2022/01/31 14:23:49;;;;;;;8.93;2.03;;;;;;;;;;4972301;28;20603;-70
2022/01/31 14:26:17;;;;;;;5.18;1.40;;;;;;;;;;4986177;28;20049;-70
2022/01/31 14:28:45;;;;;;;6.85;1.77;;;;;;;;;;5007250;28;20040;-71
2022/01/31 14:31:13;;;;;;;15.43;2.00;;;;;;;;;;5007053;28;20090;-71
2022/01/31 14:33:47;;;;;;;6.95;1.58;;;;;;;;;;4985249;28;20484;-71
2022/01/31 14:36:16;;;;;;;8.50;1.60;;;;;;;;;;4983868;28;20049;-72
2022/01/31 14:39:08;;;;;;;6.72;1.58;;;;;;;;;;4976947;28;20070;-69
2022/01/31 14:49:37;;;;;;;8.20;1.65;;;;;;;;;;4983643;28;20042;-73
2022/01/31 14:52:05;;;;;;;4.40;1.45;;;;;;;;;;4978077;28;20023;-71
2022/01/31 14:54:31;;;;;;;9.40;1.67;;;;;;;;;;4981543;28;20047;-71
2022/01/31 14:56:56;;;;;;;10.93;2.22;;;;;;;;;;4970138;28;20061;-71
2022/01/31 14:59:22;;;;;;;7.78;1.80;;;;;;;;;;4983384;28;20057;-73
2022/01/31 15:01:47;;;;;;;11.45;2.42;;;;;;;;;;4969454;28;20030;-72
2022/01/31 15:04:21;;;;;;;6.93;1.23;;;;;;;;;;4978733;28;20041;-72
2022/01/31 15:06:48;;;;;;;14.35;2.63;;;;;;;;;;4970093;28;20080;-72
2022/01/31 15:09:13;;;;;;;15.13;2.50;;;;;;;;;;4988961;28;20060;-70
2022/01/31 15:11:39;;;;;;;17.75;2.15;;;;;;;;;;4975606;28;20046;-73
2022/01/31 15:14:04;;;;;;;15.00;2.65;;;;;;;;;;4978846;28;20092;-71
2022/01/31 15:16:30;;;;;;;6.93;1.30;;;;;;;;;;4984149;28;20121;-71